Time;durP1;ratioP1;P1;durP2;ratioP2;P2;SDS_P1;SDS_P2;PMS_P1;PMS_P2;Temp;Humidity;BMP_temperature;BMP_pressure;BME280_temperature;BME280_humidity;BME280_pressure;Samples;Min_cycle;Max_cycle;Signal;HPM_P1;HPM_P2
2023/12/19 00:02:06;;;;;;;12.18;8.02;;;6.10;96.70;;;;;;6271339;22;20081;-57
2023/12/19 00:04:36;;;;;;;11.55;7.07;;;6.10;96.70;;;;;;6270437;22;20016;-57
2023/12/19 00:07:05;;;;;;;13.13;6.80;;;6.10;96.70;;;;;;6269744;22;20056;-56
2023/12/19 00:09:33;;;;;;;10.20;5.78;;;6.00;96.70;;;;;;6271900;22;20022;-56
2023/12/19 00:12:04;;;;;;;8.85;6.05;;;6.00;96.70;;;;;;6271275;22;20030;-56
2023/12/19 00:14:33;;;;;;;11.05;6.07;;;6.00;96.70;;;;;;6274231;22;20016;-56
2023/12/19 00:17:01;;;;;;;8.35;6.05;;;6.00;96.70;;;;;;6273164;22;20077;-57
2023/12/19 00:19:32;;;;;;;10.43;6.40;;;6.00;96.70;;;;;;6273334;22;20496;-57
2023/12/19 00:22:00;;;;;;;10.18;5.70;;;5.90;96.70;;;;;;6274109;22;20170;-57
2023/12/19 00:24:29;;;;;;;9.73;5.95;;;5.90;96.70;;;;;;6271838;22;20445;-57
2023/12/19 00:26:57;;;;;;;13.88;5.80;;;5.90;96.70;;;;;;6272626;22;20015;-56
2023/12/19 00:29:27;;;;;;;8.48;5.90;;;5.80;96.70;;;;;;6271908;22;20052;-57
2023/12/19 00:31:56;;;;;;;8.23;5.63;;;5.70;96.70;;;;;;6272985;22;20469;-56
2023/12/19 00:34:27;;;;;;;9.88;5.78;;;5.60;96.70;;;;;;6273479;22;20016;-56
2023/12/19 00:36:57;;;;;;;10.63;6.40;;;5.50;96.70;;;;;;6271414;22;20024;-56
2023/12/19 00:39:26;;;;;;;10.07;6.43;;;5.50;96.70;;;;;;6273192;22;20522;-56
2023/12/19 00:41:54;;;;;;;8.13;5.68;;;5.60;96.70;;;;;;6272984;22;20026;-56
2023/12/19 00:44:24;;;;;;;8.95;5.40;;;5.60;96.70;;;;;;6273542;22;20012;-57
2023/12/19 00:46:52;;;;;;;6.90;5.53;;;5.50;96.70;;;;;;6272964;22;20020;-57
2023/12/19 00:49:20;;;;;;;7.60;5.03;;;5.50;96.70;;;;;;6273554;22;20016;-57
2023/12/19 00:51:49;;;;;;;8.43;5.50;;;5.50;96.70;;;;;;6271374;22;20027;-57
2023/12/19 00:54:19;;;;;;;9.77;6.40;;;5.60;96.70;;;;;;6273197;22;20086;-57
2023/12/19 00:56:47;;;;;;;7.35;5.43;;;5.50;96.70;;;;;;6272685;22;20027;-56
2023/12/19 00:59:18;;;;;;;9.43;6.40;;;5.40;96.70;;;;;;6273360;22;20016;-57
2023/12/19 01:01:46;;;;;;;10.32;6.68;;;5.50;96.70;;;;;;6273046;22;20043;-56
2023/12/19 01:04:17;;;;;;;11.98;7.85;;;5.40;96.70;;;;;;6271444;22;20031;-57
2023/12/19 01:06:47;;;;;;;15.35;8.15;;;5.40;96.70;;;;;;6272975;22;20024;-56
2023/12/19 01:09:15;;;;;;;12.57;8.00;;;5.40;96.70;;;;;;6273054;22;20371;-57
2023/12/19 01:11:46;;;;;;;12.77;7.55;;;5.50;96.70;;;;;;6272780;22;20030;-56
2023/12/19 01:14:14;;;;;;;13.07;8.77;;;5.50;96.70;;;;;;6272883;22;20118;-57
2023/12/19 01:16:43;;;;;;;15.15;8.95;;;5.50;96.70;;;;;;6272141;22;20441;-57
2023/12/19 01:19:12;;;;;;;13.65;8.27;;;5.40;96.70;;;;;;6273072;22;20046;-56
2023/12/19 01:21:40;;;;;;;13.80;8.70;;;5.40;96.70;;;;;;6273057;22;20095;-56
2023/12/19 01:24:10;;;;;;;12.93;8.07;;;5.40;96.70;;;;;;6272871;22;20019;-56
2023/12/19 01:26:40;;;;;;;11.63;7.68;;;5.40;96.70;;;;;;6273108;22;20032;-56
2023/12/19 01:29:11;;;;;;;16.42;8.70;;;5.40;96.70;;;;;;6273309;22;20015;-56
2023/12/19 01:31:39;;;;;;;15.52;9.10;;;5.40;96.70;;;;;;6272801;22;20031;-56
2023/12/19 01:34:07;;;;;;;12.68;7.43;;;5.40;96.70;;;;;;6273655;22;20043;-56
2023/12/19 01:36:39;;;;;;;13.65;8.82;;;5.40;96.70;;;;;;6272271;22;20020;-57
2023/12/19 01:39:09;;;;;;;12.50;7.93;;;5.40;96.70;;;;;;6272472;22;20020;-56
2023/12/19 01:41:38;;;;;;;14.07;7.80;;;5.30;96.70;;;;;;6271861;22;20045;-57
2023/12/19 01:44:19;;;;;;;13.13;8.43;;;5.30;96.70;;;;;;6271390;22;20062;-56
2023/12/19 01:46:48;;;;;;;14.00;9.15;;;5.30;96.70;;;;;;6272201;22;20328;-56
2023/12/19 01:49:16;;;;;;;14.73;8.88;;;5.30;96.70;;;;;;6272894;22;20029;-56
2023/12/19 01:51:44;;;;;;;13.52;8.02;;;5.30;96.70;;;;;;6273044;22;20031;-56
2023/12/19 01:54:13;;;;;;;13.18;8.15;;;5.40;96.70;;;;;;6273094;22;20054;-57
2023/12/19 01:56:43;;;;;;;10.63;7.05;;;5.40;96.70;;;;;;6272509;22;20024;-57
2023/12/19 17:47:13;;;;;;;48.65;33.00;;;9.30;96.70;;;;;;6274678;22;20024;-67
2023/12/19 17:49:43;;;;;;;44.40;30.13;;;9.20;96.70;;;;;;6251816;22;20023;-68
2023/12/19 17:52:15;;;;;;;40.67;27.88;;;9.10;96.70;;;;;;6276428;22;20098;-67
2023/12/19 17:54:46;;;;;;;36.90;25.40;;;9.10;96.70;;;;;;6252165;22;20019;-68
2023/12/19 17:57:15;;;;;;;35.13;24.10;;;9.10;96.70;;;;;;6227025;22;20117;-68
2023/12/19 17:59:45;;;;;;;33.25;21.38;;;9.10;96.70;;;;;;6252126;22;20019;-66
2023/12/19 18:02:20;;;;;;;28.48;19.88;;;9.10;96.70;;;;;;6276640;22;20065;-67
2023/12/19 18:04:51;;;;;;;30.08;19.38;;;9.10;96.70;;;;;;6252530;22;20465;-66
2023/12/19 18:07:23;;;;;;;35.30;24.38;;;9.10;96.70;;;;;;6275918;22;20019;-66
2023/12/19 18:09:53;;;;;;;26.67;21.10;;;9.10;96.70;;;;;;6251139;22;20023;-64
2023/12/19 18:12:23;;;;;;;34.17;22.83;;;9.10;96.70;;;;;;6276693;22;20072;-64
2023/12/19 18:14:53;;;;;;;32.08;22.40;;;9.20;96.70;;;;;;6251780;22;20023;-63
2023/12/19 18:17:27;;;;;;;28.13;20.65;;;9.10;96.70;;;;;;6251217;22;20038;-63
2023/12/19 18:19:57;;;;;;;29.60;20.67;;;9.10;96.70;;;;;;6276716;22;20511;-63
2023/12/19 18:22:26;;;;;;;29.17;19.75;;;9.00;96.70;;;;;;6276722;22;20110;-64
2023/12/19 18:24:56;;;;;;;32.38;20.30;;;9.00;96.70;;;;;;6249885;22;20033;-64
2023/12/19 18:27:50;;;;;;;27.65;20.80;;;9.00;96.70;;;;;;6252268;22;20077;-64
2023/12/19 18:30:20;;;;;;;26.33;19.20;;;8.80;96.70;;;;;;6250883;22;20050;-66
2023/12/19 18:32:52;;;;;;;29.77;19.25;;;8.70;96.70;;;;;;6223486;22;20027;-66
2023/12/19 18:35:23;;;;;;;28.77;19.70;;;8.70;96.70;;;;;;6245748;22;20112;-65
2023/12/19 18:38:34;;;;;;;29.05;19.70;;;8.60;96.70;;;;;;6254772;22;20094;-65
2023/12/19 18:41:03;;;;;;;28.42;18.02;;;8.50;96.70;;;;;;6248817;22;20046;-66
2023/12/19 18:43:33;;;;;;;29.25;17.67;;;8.50;96.70;;;;;;6270403;22;20357;-66
2023/12/19 18:46:03;;;;;;;29.45;19.70;;;8.40;96.70;;;;;;6275620;22;20033;-65
2023/12/19 18:49:19;;;;;;;31.90;21.20;;;8.50;96.70;;;;;;6279586;22;20098;-65
2023/12/19 18:56:08;;;;;;;35.70;22.48;;;8.60;96.70;;;;;;6275542;22;20057;-66
2023/12/19 18:58:38;;;;;;;28.20;19.92;;;8.70;96.70;;;;;;6251769;22;20023;-66
2023/12/19 19:01:22;;;;;;;25.80;17.85;;;8.70;96.70;;;;;;6230452;22;20023;-66
2023/12/19 19:03:52;;;;;;;24.65;16.73;;;8.80;96.70;;;;;;6250787;22;20088;-65
2023/12/19 19:06:25;;;;;;;21.90;16.88;;;8.70;96.70;;;;;;6226391;22;20022;-66
2023/12/19 19:08:55;;;;;;;24.92;16.63;;;8.70;96.70;;;;;;6250577;22;20023;-66
2023/12/19 19:11:26;;;;;;;23.67;16.40;;;8.80;96.70;;;;;;6250887;22;20023;-66
2023/12/19 19:13:57;;;;;;;22.10;15.77;;;8.90;96.70;;;;;;6250840;22;20062;-65
2023/12/19 19:16:27;;;;;;;22.50;15.57;;;8.90;96.70;;;;;;6250344;22;20020;-65
2023/12/19 19:18:56;;;;;;;21.08;14.70;;;9.00;96.70;;;;;;6251305;22;20023;-65
2023/12/19 19:21:29;;;;;;;26.90;18.77;;;9.00;96.70;;;;;;6250768;22;20033;-65
2023/12/19 19:24:02;;;;;;;29.75;21.90;;;9.00;96.70;;;;;;6228123;22;20031;-65
2023/12/19 19:26:32;;;;;;;29.35;20.75;;;9.00;96.70;;;;;;6250203;22;20049;-66
2023/12/19 19:29:02;;;;;;;27.75;20.75;;;9.00;96.70;;;;;;6249072;22;20023;-65
2023/12/19 19:31:31;;;;;;;32.63;23.77;;;9.00;96.70;;;;;;6274239;22;20399;-65
2023/12/19 19:34:01;;;;;;;30.80;22.42;;;9.00;96.70;;;;;;6273852;22;20115;-66
2023/12/19 19:36:35;;;;;;;32.08;23.13;;;9.00;96.70;;;;;;6275094;22;20039;-65
2023/12/19 19:39:07;;;;;;;32.63;21.58;;;9.00;96.70;;;;;;6250328;22;20073;-65
2023/12/19 19:41:45;;;;;;;28.67;21.83;;;9.00;96.70;;;;;;6249800;22;20135;-65
2023/12/19 19:44:14;;;;;;;28.98;21.70;;;9.00;96.70;;;;;;6248598;22;20023;-66
2023/12/19 19:46:44;;;;;;;28.35;21.13;;;9.00;96.70;;;;;;6244745;22;20062;-66
2023/12/19 19:52:32;;;;;;;28.05;20.75;;;9.00;96.70;;;;;;6270387;22;20023;-65
2023/12/19 19:55:02;;;;;;;28.25;19.77;;;9.00;96.70;;;;;;6244702;22;20027;-65
2023/12/19 20:02:17;;;;;;;26.25;19.17;;;9.00;96.70;;;;;;6271755;22;20050;-66
2023/12/19 20:04:47;;;;;;;32.70;22.08;;;9.00;96.70;;;;;;6245867;22;20028;-66
2023/12/19 20:07:31;;;;;;;;;;;;;;;;;;;;;
2023/12/19 20:10:09;;;;;;;29.08;22.02;;;9.00;96.70;;;;;;6270288;22;20024;-66
2023/12/19 20:12:39;;;;;;;29.80;21.48;;;9.00;96.70;;;;;;6245017;22;20044;-66
2023/12/19 20:15:10;;;;;;;33.47;22.92;;;9.00;96.70;;;;;;6245388;22;20094;-66
2023/12/19 20:17:44;;;;;;;30.13;21.15;;;8.90;96.70;;;;;;6219512;22;20040;-66
2023/12/19 20:20:19;;;;;;;31.15;20.92;;;8.90;96.70;;;;;;6245300;22;20078;-66
2023/12/19 20:25:40;;;;;;;32.60;20.73;;;8.80;96.70;;;;;;6269827;22;20470;-66
2023/12/19 20:28:09;;;;;;;32.20;21.30;;;8.80;96.70;;;;;;6245136;22;20019;-66
2023/12/19 20:30:39;;;;;;;32.28;21.08;;;8.80;96.70;;;;;;6246243;22;20103;-66
2023/12/19 20:33:10;;;;;;;48.22;23.92;;;8.80;96.70;;;;;;6246686;22;20031;-66
2023/12/19 20:36:02;;;;;;;38.53;24.00;;;8.80;96.70;;;;;;6247867;22;20034;-66
2023/12/19 20:38:33;;;;;;;42.25;23.60;;;8.80;96.70;;;;;;6247794;22;20040;-66
2023/12/19 20:41:43;;;;;;;43.90;22.15;;;8.80;96.70;;;;;;6272413;22;20085;-65
2023/12/19 20:44:14;;;;;;;51.60;28.08;;;8.80;96.70;;;;;;6272325;22;20043;-66
2023/12/19 20:47:28;;;;;;;54.22;27.67;;;8.80;96.70;;;;;;6237286;22;20031;-65
2023/12/19 20:50:02;;;;;;;43.85;25.60;;;8.70;96.70;;;;;;6247275;22;20103;-65
2023/12/19 20:52:37;;;;;;;49.85;26.02;;;8.70;96.70;;;;;;6248334;22;20027;-66
2023/12/19 20:55:46;;;;;;;49.05;27.75;;;8.60;96.70;;;;;;6209356;22;20409;-66
2023/12/19 20:58:19;;;;;;;62.08;28.52;;;8.60;96.70;;;;;;6222605;22;20102;-66
2023/12/19 21:01:45;;;;;;;60.30;29.10;;;8.60;96.70;;;;;;6119605;23;20030;-66
2023/12/19 21:04:32;;;;;;;59.45;27.85;;;8.60;96.70;;;;;;6186220;23;20107;-66
2023/12/19 21:07:48;;;;;;;61.65;26.98;;;8.60;96.70;;;;;;6224170;23;20105;-66
2023/12/19 21:10:56;;;;;;;70.47;30.00;;;8.60;96.70;;;;;;6221885;23;20206;-65
2023/12/19 21:13:28;;;;;;;57.13;29.00;;;8.50;96.70;;;;;;6184211;23;20113;-65
2023/12/19 21:16:00;;;;;;;59.80;28.10;;;8.50;96.70;;;;;;6190179;23;20108;-66
2023/12/19 21:18:35;;;;;;;55.15;29.00;;;8.50;96.70;;;;;;6142822;23;20020;-66
2023/12/19 21:21:52;;;;;;;67.97;28.08;;;8.50;96.70;;;;;;6222055;23;20086;-65
2023/12/19 21:24:22;;;;;;;62.80;29.77;;;8.50;96.70;;;;;;6190252;23;20110;-65
2023/12/19 21:26:52;;;;;;;56.20;27.02;;;8.50;96.70;;;;;;6189407;23;20023;-66
2023/12/19 21:29:23;;;;;;;56.03;26.58;;;8.50;96.70;;;;;;6190431;23;20035;-66
2023/12/19 21:32:06;;;;;;;57.85;29.33;;;8.50;96.70;;;;;;6245711;22;20421;-66
2023/12/19 21:35:10;;;;;;;66.35;29.88;;;8.50;96.70;;;;;;6222454;22;20027;-65
2023/12/19 21:37:42;;;;;;;61.60;27.17;;;8.50;96.70;;;;;;6222627;22;20019;-65
2023/12/19 21:40:11;;;;;;;73.10;27.98;;;8.50;96.70;;;;;;6246863;22;20031;-66
2023/12/19 21:43:36;;;;;;;55.40;24.85;;;8.50;96.70;;;;;;6246723;22;20114;-65
2023/12/19 21:45:54;;;;;;;56.67;26.05;;;8.40;96.70;;;;;;6266707;22;20027;-66
2023/12/19 21:48:24;;;;;;;65.03;26.60;;;8.40;96.70;;;;;;6246634;22;20016;-65
2023/12/19 21:50:53;;;;;;;58.15;24.73;;;8.40;96.70;;;;;;6222114;22;20027;-66
2023/12/19 21:53:24;;;;;;;60.45;24.65;;;8.40;96.70;;;;;;6247310;22;20019;-66
2023/12/19 21:55:54;;;;;;;64.28;24.33;;;8.40;96.70;;;;;;6246245;22;20023;-66
2023/12/19 21:58:26;;;;;;;63.67;24.88;;;8.30;96.70;;;;;;6221781;22;20020;-66
2023/12/19 22:01:00;;;;;;;60.97;24.90;;;8.30;96.70;;;;;;6272094;22;20019;-65
2023/12/19 22:04:22;;;;;;;58.17;25.05;;;8.30;96.70;;;;;;6223264;22;20088;-66
2023/12/19 22:06:52;;;;;;;56.13;21.88;;;8.20;96.70;;;;;;6246991;22;20347;-66
2023/12/19 22:09:45;;;;;;;53.53;24.65;;;8.20;96.70;;;;;;6246043;22;20085;-65
2023/12/19 22:13:19;;;;;;;50.22;22.50;;;8.20;96.70;;;;;;6179260;23;20122;-65
2023/12/19 22:15:59;;;;;;;55.60;23.33;;;8.20;96.70;;;;;;6130772;23;20147;-65
2023/12/19 22:19:19;;;;;;;49.33;23.60;;;8.20;96.70;;;;;;6028036;23;20042;-66
2023/12/19 22:21:49;;;;;;;62.83;24.08;;;8.20;96.70;;;;;;6015152;23;20047;-66
2023/12/19 22:24:20;;;;;;;51.97;21.83;;;8.20;96.70;;;;;;6061212;23;20058;-66
2023/12/19 22:26:49;;;;;;;47.00;23.65;;;8.20;96.70;;;;;;6014164;23;20067;-66
2023/12/19 22:29:29;;;;;;;49.05;23.33;;;8.20;96.70;;;;;;6037695;23;20082;-66
2023/12/19 22:31:58;;;;;;;49.53;23.02;;;8.20;96.70;;;;;;6013220;23;20027;-66
2023/12/19 22:34:29;;;;;;;51.65;22.55;;;8.20;96.70;;;;;;6085665;23;20023;-66
2023/12/19 22:36:59;;;;;;;51.63;22.95;;;8.20;96.70;;;;;;6115156;23;20017;-65
2023/12/19 22:39:28;;;;;;;44.72;22.33;;;8.20;96.70;;;;;;6130007;23;20025;-67
2023/12/19 22:42:01;;;;;;;42.45;22.60;;;8.20;96.70;;;;;;6163349;22;20021;-66
2023/12/19 22:44:33;;;;;;;;;;;8.30;96.70;;;;;;6225693;22;20023;-66
2023/12/19 22:47:03;;;;;;;44.72;22.23;;;8.30;96.70;;;;;;6250828;22;20288;-66
2023/12/19 22:49:36;;;;;;;46.20;23.42;;;8.30;96.70;;;;;;6276296;22;20020;-66
2023/12/19 22:52:07;;;;;;;46.40;23.80;;;8.20;96.70;;;;;;6251531;22;20033;-66
2023/12/19 22:54:40;;;;;;;49.42;24.42;;;8.20;96.70;;;;;;6251239;22;20029;-66
2023/12/19 22:57:10;;;;;;;47.42;23.80;;;8.10;96.70;;;;;;6250793;22;20016;-66
2023/12/19 23:00:18;;;;;;;47.63;22.83;;;8.20;96.70;;;;;;6286009;22;20464;-66
2023/12/19 23:02:47;;;;;;;50.67;24.65;;;8.20;96.70;;;;;;6251418;22;20019;-66
2023/12/19 23:05:22;;;;;;;47.85;23.25;;;8.10;96.70;;;;;;6276725;22;20023;-67
2023/12/19 23:07:51;;;;;;;49.97;23.03;;;8.10;96.70;;;;;;6276696;22;20019;-66
2023/12/19 23:10:20;;;;;;;54.35;24.65;;;8.00;96.70;;;;;;6251734;22;20106;-66
2023/12/19 23:12:54;;;;;;;55.72;25.58;;;8.00;96.70;;;;;;6251408;22;20029;-66
2023/12/19 23:15:23;;;;;;;53.95;24.52;;;8.00;96.70;;;;;;6251241;22;20030;-66
2023/12/19 23:17:55;;;;;;;64.28;26.98;;;8.00;96.70;;;;;;6276110;22;20019;-66
2023/12/19 23:20:27;;;;;;;65.25;28.40;;;8.00;96.70;;;;;;6226703;22;20043;-66
2023/12/19 23:22:56;;;;;;;62.00;28.27;;;8.00;96.70;;;;;;6251658;22;20033;-67
2023/12/19 23:25:25;;;;;;;83.95;30.85;;;8.00;96.70;;;;;;6251343;22;20033;-67
2023/12/19 23:27:57;;;;;;;72.95;30.15;;;8.00;96.70;;;;;;6251467;22;20023;-67
2023/12/19 23:30:27;;;;;;;75.00;30.55;;;8.10;96.70;;;;;;6202536;22;20027;-66
2023/12/19 23:32:59;;;;;;;84.38;33.28;;;8.10;96.70;;;;;;6275954;22;20472;-67
2023/12/19 23:36:17;;;;;;;79.43;32.58;;;8.10;96.70;;;;;;6251711;22;20093;-66
2023/12/19 23:38:33;;;;;;;78.95;32.00;;;8.10;96.70;;;;;;6264358;22;20475;-67
2023/12/19 23:41:01;;;;;;;79.72;30.90;;;8.10;96.70;;;;;;6250678;22;20023;-67
2023/12/19 23:43:31;;;;;;;72.45;32.83;;;8.10;96.70;;;;;;6225916;22;20465;-67
2023/12/19 23:46:38;;;;;;;74.90;32.05;;;8.20;96.70;;;;;;6251055;22;20030;-66
2023/12/19 23:49:11;;;;;;;89.75;34.50;;;8.20;96.70;;;;;;6159269;23;20023;-67
2023/12/19 23:51:47;;;;;;;81.05;32.78;;;8.20;96.70;;;;;;6183460;23;20043;-67
2023/12/19 23:54:16;;;;;;;;;;;8.20;96.70;;;;;;6159739;23;20024;-66
2023/12/19 23:56:45;;;;;;;73.43;34.50;;;8.20;96.70;;;;;;6184014;23;20618;-66
2023/12/19 23:59:29;;;;;;;73.60;34.03;;;8.20;96.70;;;;;;6187736;23;20088;-66
